sensor_id;sensor_type;location;lat;lon;timestamp;P1;durP1;ratioP1;P2;durP2;ratioP2
66472;SDS011;53291;51.680;8.344;2022-08-01T00:00:10;19.13;;;9.70;;
66472;SDS011;53291;51.680;8.344;2022-08-01T00:02:36;17.73;;;10.80;;
66472;SDS011;53291;51.680;8.344;2022-08-01T00:05:06;15.40;;;9.63;;
66472;SDS011;53291;51.680;8.344;2022-08-01T00:07:33;15.77;;;10.05;;
66472;SDS011;53291;51.680;8.344;2022-08-01T00:09:59;17.20;;;10.45;;
66472;SDS011;53291;51.680;8.344;2022-08-01T00:12:25;17.30;;;10.32;;
66472;SDS011;53291;51.680;8.344;2022-08-01T00:14:50;16.10;;;9.93;;
66472;SDS011;53291;51.680;8.344;2022-08-01T00:17:16;15.15;;;10.25;;
66472;SDS011;53291;51.680;8.344;2022-08-01T00:19:41;16.05;;;10.63;;
66472;SDS011;53291;51.680;8.344;2022-08-01T00:22:06;16.10;;;10.52;;
66472;SDS011;53291;51.680;8.344;2022-08-01T00:24:32;17.42;;;10.82;;
66472;SDS011;53291;51.680;8.344;2022-08-01T00:26:57;15.02;;;10.98;;
66472;SDS011;53291;51.680;8.344;2022-08-01T00:29:23;16.83;;;11.10;;
66472;SDS011;53291;51.680;8.344;2022-08-01T00:32:08;16.42;;;10.63;;
66472;SDS011;53291;51.680;8.344;2022-08-01T00:34:34;16.77;;;10.88;;
66472;SDS011;53291;51.680;8.344;2022-08-01T00:36:59;18.83;;;11.25;;
66472;SDS011;53291;51.680;8.344;2022-08-01T00:39:24;16.75;;;11.95;;
66472;SDS011;53291;51.680;8.344;2022-08-01T00:41:50;17.42;;;11.20;;
66472;SDS011;53291;51.680;8.344;2022-08-01T00:44:15;16.75;;;10.82;;
66472;SDS011;53291;51.680;8.344;2022-08-01T00:46:41;16.17;;;10.77;;
66472;SDS011;53291;51.680;8.344;2022-08-01T00:49:06;17.23;;;11.65;;
66472;SDS011;53291;51.680;8.344;2022-08-01T00:51:32;16.80;;;10.68;;
66472;SDS011;53291;51.680;8.344;2022-08-01T00:53:58;18.35;;;11.90;;
66472;SDS011;53291;51.680;8.344;2022-08-01T00:56:25;18.80;;;12.23;;
66472;SDS011;53291;51.680;8.344;2022-08-01T00:58:52;17.42;;;11.15;;
66472;SDS011;53291;51.680;8.344;2022-08-01T01:01:18;17.35;;;10.93;;
66472;SDS011;53291;51.680;8.344;2022-08-01T01:03:45;19.45;;;11.52;;
66472;SDS011;53291;51.680;8.344;2022-08-01T01:06:22;19.23;;;10.98;;
66472;SDS011;53291;51.680;8.344;2022-08-01T01:08:58;19.60;;;11.77;;
66472;SDS011;53291;51.680;8.344;2022-08-01T01:11:37;20.80;;;10.90;;
66472;SDS011;53291;51.680;8.344;2022-08-01T01:17:14;18.10;;;12.27;;
66472;SDS011;53291;51.680;8.344;2022-08-01T01:19:45;18.20;;;11.95;;
66472;SDS011;53291;51.680;8.344;2022-08-01T01:22:27;18.08;;;11.02;;
66472;SDS011;53291;51.680;8.344;2022-08-01T01:30:30;18.45;;;11.93;;
66472;SDS011;53291;51.680;8.344;2022-08-01T01:32:58;19.30;;;12.02;;
66472;SDS011;53291;51.680;8.344;2022-08-01T01:35:28;18.50;;;12.27;;
66472;SDS011;53291;51.680;8.344;2022-08-01T01:38:01;19.70;;;11.18;;
66472;SDS011;53291;51.680;8.344;2022-08-01T01:40:30;19.25;;;11.98;;
66472;SDS011;53291;51.680;8.344;2022-08-01T01:42:56;17.98;;;12.02;;
66472;SDS011;53291;51.680;8.344;2022-08-01T01:45:25;19.95;;;11.18;;
66472;SDS011;53291;51.680;8.344;2022-08-01T01:50:19;16.80;;;11.10;;
66472;SDS011;53291;51.680;8.344;2022-08-01T01:52:46;17.80;;;11.00;;
66472;SDS011;53291;51.680;8.344;2022-08-01T01:55:12;18.10;;;11.75;;
66472;SDS011;53291;51.680;8.344;2022-08-01T01:57:40;18.35;;;10.82;;
66472;SDS011;53291;51.680;8.344;2022-08-01T02:00:07;18.65;;;11.25;;
66472;SDS011;53291;51.680;8.344;2022-08-01T02:02:36;16.67;;;10.30;;
66472;SDS011;53291;51.680;8.344;2022-08-01T02:05:03;20.67;;;10.75;;
66472;SDS011;53291;51.680;8.344;2022-08-01T02:07:34;19.90;;;11.60;;
66472;SDS011;53291;51.680;8.344;2022-08-01T02:10:02;15.52;;;10.13;;
66472;SDS011;53291;51.680;8.344;2022-08-01T02:12:29;15.02;;;8.48;;
66472;SDS011;53291;51.680;8.344;2022-08-01T02:14:59;13.38;;;7.90;;
66472;SDS011;53291;51.680;8.344;2022-08-01T02:17:26;11.77;;;7.43;;
66472;SDS011;53291;51.680;8.344;2022-08-01T02:19:53;14.45;;;7.93;;
66472;SDS011;53291;51.680;8.344;2022-08-01T02:22:21;12.90;;;7.68;;
66472;SDS011;53291;51.680;8.344;2022-08-01T02:27:34;12.18;;;6.47;;
66472;SDS011;53291;51.680;8.344;2022-08-01T02:30:07;11.45;;;6.20;;
66472;SDS011;53291;51.680;8.344;2022-08-01T02:32:43;9.70;;;5.45;;
66472;SDS011;53291;51.680;8.344;2022-08-01T02:35:12;13.52;;;6.63;;
66472;SDS011;53291;51.680;8.344;2022-08-01T02:37:50;11.15;;;5.85;;
66472;SDS011;53291;51.680;8.344;2022-08-01T02:40:18;11.38;;;6.78;;
66472;SDS011;53291;51.680;8.344;2022-08-01T02:42:45;12.50;;;6.22;;
66472;SDS011;53291;51.680;8.344;2022-08-01T02:45:14;10.32;;;5.85;;
66472;SDS011;53291;51.680;8.344;2022-08-01T02:47:42;9.43;;;5.93;;
66472;SDS011;53291;51.680;8.344;2022-08-01T02:50:10;10.48;;;6.43;;
66472;SDS011;53291;51.680;8.344;2022-08-01T02:52:39;12.65;;;6.07;;
66472;SDS011;53291;51.680;8.344;2022-08-01T02:55:06;11.30;;;6.63;;
66472;SDS011;53291;51.680;8.344;2022-08-01T02:57:33;12.95;;;7.43;;
66472;SDS011;53291;51.680;8.344;2022-08-01T03:00:02;13.23;;;6.82;;
66472;SDS011;53291;51.680;8.344;2022-08-01T03:02:29;13.05;;;7.45;;
66472;SDS011;53291;51.680;8.344;2022-08-01T03:04:56;14.18;;;7.13;;
66472;SDS011;53291;51.680;8.344;2022-08-01T03:07:23;13.48;;;7.07;;
66472;SDS011;53291;51.680;8.344;2022-08-01T03:09:50;12.07;;;6.95;;
66472;SDS011;53291;51.680;8.344;2022-08-01T03:12:17;13.20;;;6.97;;
66472;SDS011;53291;51.680;8.344;2022-08-01T03:14:45;12.98;;;7.20;;
66472;SDS011;53291;51.680;8.344;2022-08-01T03:17:12;14.45;;;7.78;;
66472;SDS011;53291;51.680;8.344;2022-08-01T03:19:38;15.35;;;7.75;;
66472;SDS011;53291;51.680;8.344;2022-08-01T03:22:05;13.00;;;7.35;;
66472;SDS011;53291;51.680;8.344;2022-08-01T03:24:33;12.82;;;6.78;;
66472;SDS011;53291;51.680;8.344;2022-08-01T03:27:02;13.60;;;7.05;;
66472;SDS011;53291;51.680;8.344;2022-08-01T03:29:28;12.38;;;6.40;;
66472;SDS011;53291;51.680;8.344;2022-08-01T03:31:57;11.75;;;6.38;;
66472;SDS011;53291;51.680;8.344;2022-08-01T03:34:26;10.65;;;5.63;;
66472;SDS011;53291;51.680;8.344;2022-08-01T03:39:49;10.88;;;6.00;;
66472;SDS011;53291;51.680;8.344;2022-08-01T03:42:20;11.23;;;5.97;;
66472;SDS011;53291;51.680;8.344;2022-08-01T03:44:53;11.00;;;6.75;;
66472;SDS011;53291;51.680;8.344;2022-08-01T03:47:22;11.27;;;5.70;;
66472;SDS011;53291;51.680;8.344;2022-08-01T03:49:51;11.65;;;5.80;;
66472;SDS011;53291;51.680;8.344;2022-08-01T03:52:18;11.40;;;5.68;;
66472;SDS011;53291;51.680;8.344;2022-08-01T03:54:46;11.70;;;6.10;;
66472;SDS011;53291;51.680;8.344;2022-08-01T03:57:14;11.15;;;7.00;;
66472;SDS011;53291;51.680;8.344;2022-08-01T03:59:40;9.55;;;5.55;;
66472;SDS011;53291;51.680;8.344;2022-08-01T04:02:06;10.07;;;5.82;;
66472;SDS011;53291;51.680;8.344;2022-08-01T04:04:33;10.85;;;5.85;;
66472;SDS011;53291;51.680;8.344;2022-08-01T04:06:58;11.30;;;5.38;;
66472;SDS011;53291;51.680;8.344;2022-08-01T04:09:29;10.30;;;5.20;;
66472;SDS011;53291;51.680;8.344;2022-08-01T04:11:58;12.30;;;5.60;;
66472;SDS011;53291;51.680;8.344;2022-08-01T04:14:25;11.88;;;6.13;;
66472;SDS011;53291;51.680;8.344;2022-08-01T04:16:51;10.32;;;6.28;;
66472;SDS011;53291;51.680;8.344;2022-08-01T04:19:16;10.50;;;5.35;;
66472;SDS011;53291;51.680;8.344;2022-08-01T04:21:42;10.10;;;5.45;;
66472;SDS011;53291;51.680;8.344;2022-08-01T04:24:11;9.30;;;5.38;;
66472;SDS011;53291;51.680;8.344;2022-08-01T04:26:40;11.60;;;5.38;;
66472;SDS011;53291;51.680;8.344;2022-08-01T04:29:08;9.60;;;5.50;;
66472;SDS011;53291;51.680;8.344;2022-08-01T04:31:34;11.02;;;5.45;;
66472;SDS011;53291;51.680;8.344;2022-08-01T04:34:02;10.13;;;5.78;;
66472;SDS011;53291;51.680;8.344;2022-08-01T04:36:29;9.85;;;5.22;;
66472;SDS011;53291;51.680;8.344;2022-08-01T04:41:25;12.43;;;5.95;;
66472;SDS011;53291;51.680;8.344;2022-08-01T04:43:51;11.43;;;6.07;;
66472;SDS011;53291;51.680;8.344;2022-08-01T04:46:19;11.27;;;6.47;;
66472;SDS011;53291;51.680;8.344;2022-08-01T04:48:44;14.82;;;6.55;;
66472;SDS011;53291;51.680;8.344;2022-08-01T04:51:13;13.05;;;7.03;;
66472;SDS011;53291;51.680;8.344;2022-08-01T04:53:46;12.75;;;7.15;;
66472;SDS011;53291;51.680;8.344;2022-08-01T04:56:12;12.13;;;6.22;;
66472;SDS011;53291;51.680;8.344;2022-08-01T04:58:39;12.77;;;6.70;;
66472;SDS011;53291;51.680;8.344;2022-08-01T05:01:07;12.65;;;6.80;;
66472;SDS011;53291;51.680;8.344;2022-08-01T05:03:34;11.80;;;6.75;;
66472;SDS011;53291;51.680;8.344;2022-08-01T05:05:59;13.23;;;7.00;;
66472;SDS011;53291;51.680;8.344;2022-08-01T05:08:25;14.82;;;6.97;;
66472;SDS011;53291;51.680;8.344;2022-08-01T05:10:50;15.05;;;7.63;;
66472;SDS011;53291;51.680;8.344;2022-08-01T05:13:16;12.75;;;7.30;;
66472;SDS011;53291;51.680;8.344;2022-08-01T05:15:41;14.20;;;7.63;;
66472;SDS011;53291;51.680;8.344;2022-08-01T05:18:06;14.45;;;7.60;;
66472;SDS011;53291;51.680;8.344;2022-08-01T05:20:32;15.85;;;8.57;;
66472;SDS011;53291;51.680;8.344;2022-08-01T05:22:57;13.93;;;7.63;;
66472;SDS011;53291;51.680;8.344;2022-08-01T05:25:23;13.82;;;7.93;;
66472;SDS011;53291;51.680;8.344;2022-08-01T05:27:48;15.25;;;8.93;;
66472;SDS011;53291;51.680;8.344;2022-08-01T05:30:14;12.98;;;7.50;;
66472;SDS011;53291;51.680;8.344;2022-08-01T05:32:40;17.83;;;8.13;;
66472;SDS011;53291;51.680;8.344;2022-08-01T05:35:06;15.93;;;8.95;;
66472;SDS011;53291;51.680;8.344;2022-08-01T05:37:32;15.50;;;7.88;;
66472;SDS011;53291;51.680;8.344;2022-08-01T05:39:57;13.65;;;6.97;;
66472;SDS011;53291;51.680;8.344;2022-08-01T05:42:23;13.05;;;7.85;;
66472;SDS011;53291;51.680;8.344;2022-08-01T05:44:48;12.82;;;6.80;;
66472;SDS011;53291;51.680;8.344;2022-08-01T05:47:15;14.95;;;7.63;;
66472;SDS011;53291;51.680;8.344;2022-08-01T05:49:40;13.95;;;7.80;;
66472;SDS011;53291;51.680;8.344;2022-08-01T05:52:06;14.88;;;5.97;;
66472;SDS011;53291;51.680;8.344;2022-08-01T05:54:32;13.25;;;7.15;;
66472;SDS011;53291;51.680;8.344;2022-08-01T05:56:57;13.43;;;6.85;;
66472;SDS011;53291;51.680;8.344;2022-08-01T05:59:26;12.00;;;6.93;;
66472;SDS011;53291;51.680;8.344;2022-08-01T06:01:51;14.60;;;6.90;;
66472;SDS011;53291;51.680;8.344;2022-08-01T06:04:17;10.80;;;6.25;;
66472;SDS011;53291;51.680;8.344;2022-08-01T06:06:42;12.05;;;6.65;;
66472;SDS011;53291;51.680;8.344;2022-08-01T06:09:07;10.18;;;5.25;;
66472;SDS011;53291;51.680;8.344;2022-08-01T06:11:33;10.65;;;6.03;;
66472;SDS011;53291;51.680;8.344;2022-08-01T06:13:58;11.15;;;6.03;;
66472;SDS011;53291;51.680;8.344;2022-08-01T06:16:24;9.98;;;5.03;;
66472;SDS011;53291;51.680;8.344;2022-08-01T06:18:49;9.13;;;4.70;;
66472;SDS011;53291;51.680;8.344;2022-08-01T06:21:14;8.75;;;4.93;;
66472;SDS011;53291;51.680;8.344;2022-08-01T06:23:40;8.27;;;4.03;;
66472;SDS011;53291;51.680;8.344;2022-08-01T06:26:07;8.68;;;4.20;;
66472;SDS011;53291;51.680;8.344;2022-08-01T06:28:33;8.10;;;4.15;;
66472;SDS011;53291;51.680;8.344;2022-08-01T06:30:58;8.40;;;4.35;;
66472;SDS011;53291;51.680;8.344;2022-08-01T06:33:24;7.30;;;3.85;;
66472;SDS011;53291;51.680;8.344;2022-08-01T06:35:50;7.40;;;4.20;;
66472;SDS011;53291;51.680;8.344;2022-08-01T06:38:15;7.63;;;3.67;;
66472;SDS011;53291;51.680;8.344;2022-08-01T06:40:41;7.13;;;4.70;;
66472;SDS011;53291;51.680;8.344;2022-08-01T06:43:07;7.18;;;4.07;;
66472;SDS011;53291;51.680;8.344;2022-08-01T06:45:32;8.40;;;4.93;;
66472;SDS011;53291;51.680;8.344;2022-08-01T06:47:58;7.50;;;4.35;;
66472;SDS011;53291;51.680;8.344;2022-08-01T06:50:23;8.15;;;4.47;;
66472;SDS011;53291;51.680;8.344;2022-08-01T06:52:48;8.60;;;4.50;;
66472;SDS011;53291;51.680;8.344;2022-08-01T06:55:15;8.20;;;4.05;;
66472;SDS011;53291;51.680;8.344;2022-08-01T06:57:47;6.70;;;3.92;;
66472;SDS011;53291;51.680;8.344;2022-08-01T07:00:14;6.70;;;3.97;;
66472;SDS011;53291;51.680;8.344;2022-08-01T07:02:41;6.50;;;3.47;;
66472;SDS011;53291;51.680;8.344;2022-08-01T07:05:07;6.65;;;4.15;;
66472;SDS011;53291;51.680;8.344;2022-08-01T07:07:33;6.30;;;3.20;;
66472;SDS011;53291;51.680;8.344;2022-08-01T07:09:58;6.88;;;3.63;;
66472;SDS011;53291;51.680;8.344;2022-08-01T07:12:23;6.70;;;3.72;;
66472;SDS011;53291;51.680;8.344;2022-08-01T07:14:49;6.07;;;3.08;;
66472;SDS011;53291;51.680;8.344;2022-08-01T07:17:14;5.32;;;3.15;;
66472;SDS011;53291;51.680;8.344;2022-08-01T07:19:39;7.82;;;3.05;;
66472;SDS011;53291;51.680;8.344;2022-08-01T07:22:05;5.10;;;3.17;;
66472;SDS011;53291;51.680;8.344;2022-08-01T07:24:30;4.85;;;2.95;;
66472;SDS011;53291;51.680;8.344;2022-08-01T07:26:56;6.30;;;2.90;;
66472;SDS011;53291;51.680;8.344;2022-08-01T07:29:25;6.07;;;2.53;;
66472;SDS011;53291;51.680;8.344;2022-08-01T07:34:18;5.90;;;2.97;;
66472;SDS011;53291;51.680;8.344;2022-08-01T07:36:43;6.50;;;2.85;;
66472;SDS011;53291;51.680;8.344;2022-08-01T07:39:09;6.28;;;2.90;;
66472;SDS011;53291;51.680;8.344;2022-08-01T07:41:34;6.93;;;3.65;;
66472;SDS011;53291;51.680;8.344;2022-08-01T07:44:00;6.18;;;3.67;;
66472;SDS011;53291;51.680;8.344;2022-08-01T07:46:25;6.05;;;3.17;;
66472;SDS011;53291;51.680;8.344;2022-08-01T07:48:50;5.03;;;3.17;;
66472;SDS011;53291;51.680;8.344;2022-08-01T07:51:16;6.07;;;3.70;;
66472;SDS011;53291;51.680;8.344;2022-08-01T07:53:41;7.65;;;4.18;;
66472;SDS011;53291;51.680;8.344;2022-08-01T07:56:06;6.22;;;3.10;;
66472;SDS011;53291;51.680;8.344;2022-08-01T07:58:32;6.90;;;3.88;;
66472;SDS011;53291;51.680;8.344;2022-08-01T08:00:58;5.80;;;3.33;;
66472;SDS011;53291;51.680;8.344;2022-08-01T08:03:24;6.38;;;3.50;;
66472;SDS011;53291;51.680;8.344;2022-08-01T08:05:49;5.20;;;2.63;;
66472;SDS011;53291;51.680;8.344;2022-08-01T08:08:15;5.40;;;2.65;;
66472;SDS011;53291;51.680;8.344;2022-08-01T08:10:42;5.18;;;3.15;;
66472;SDS011;53291;51.680;8.344;2022-08-01T08:13:07;4.82;;;2.25;;
66472;SDS011;53291;51.680;8.344;2022-08-01T08:15:33;3.13;;;1.80;;
66472;SDS011;53291;51.680;8.344;2022-08-01T08:17:58;3.85;;;2.13;;
66472;SDS011;53291;51.680;8.344;2022-08-01T08:20:23;4.65;;;2.38;;
66472;SDS011;53291;51.680;8.344;2022-08-01T08:22:54;2.80;;;1.52;;
66472;SDS011;53291;51.680;8.344;2022-08-01T08:25:21;2.92;;;1.45;;
66472;SDS011;53291;51.680;8.344;2022-08-01T08:27:49;4.25;;;2.22;;
66472;SDS011;53291;51.680;8.344;2022-08-01T08:30:14;2.42;;;1.50;;
66472;SDS011;53291;51.680;8.344;2022-08-01T08:32:40;2.30;;;1.05;;
66472;SDS011;53291;51.680;8.344;2022-08-01T08:35:07;2.83;;;0.82;;
66472;SDS011;53291;51.680;8.344;2022-08-01T08:37:36;3.53;;;1.40;;
66472;SDS011;53291;51.680;8.344;2022-08-01T08:40:05;2.15;;;1.38;;
66472;SDS011;53291;51.680;8.344;2022-08-01T08:42:31;2.33;;;1.42;;
66472;SDS011;53291;51.680;8.344;2022-08-01T08:44:57;2.65;;;1.20;;
66472;SDS011;53291;51.680;8.344;2022-08-01T08:47:23;2.60;;;1.30;;
66472;SDS011;53291;51.680;8.344;2022-08-01T08:49:50;1.80;;;0.93;;
66472;SDS011;53291;51.680;8.344;2022-08-01T08:52:19;3.78;;;1.25;;
66472;SDS011;53291;51.680;8.344;2022-08-01T08:54:44;4.15;;;1.75;;
66472;SDS011;53291;51.680;8.344;2022-08-01T08:57:10;3.80;;;1.90;;
66472;SDS011;53291;51.680;8.344;2022-08-01T08:59:39;5.82;;;1.45;;
66472;SDS011;53291;51.680;8.344;2022-08-01T09:02:05;7.35;;;1.90;;
66472;SDS011;53291;51.680;8.344;2022-08-01T09:04:31;2.95;;;1.13;;
66472;SDS011;53291;51.680;8.344;2022-08-01T09:06:57;2.50;;;1.27;;
66472;SDS011;53291;51.680;8.344;2022-08-01T09:09:23;2.65;;;1.42;;
66472;SDS011;53291;51.680;8.344;2022-08-01T09:11:48;2.85;;;1.30;;
66472;SDS011;53291;51.680;8.344;2022-08-01T09:14:14;2.60;;;1.20;;
66472;SDS011;53291;51.680;8.344;2022-08-01T09:17:08;3.60;;;1.33;;
66472;SDS011;53291;51.680;8.344;2022-08-01T09:22:03;3.65;;;1.65;;
66472;SDS011;53291;51.680;8.344;2022-08-01T09:24:31;2.88;;;1.25;;
66472;SDS011;53291;51.680;8.344;2022-08-01T09:26:57;3.97;;;1.60;;
66472;SDS011;53291;51.680;8.344;2022-08-01T09:29:25;2.92;;;1.25;;
66472;SDS011;53291;51.680;8.344;2022-08-01T09:31:51;3.28;;;1.40;;
66472;SDS011;53291;51.680;8.344;2022-08-01T09:34:38;3.00;;;1.33;;
66472;SDS011;53291;51.680;8.344;2022-08-01T09:37:03;3.00;;;1.33;;
66472;SDS011;53291;51.680;8.344;2022-08-01T09:39:34;2.92;;;1.60;;
66472;SDS011;53291;51.680;8.344;2022-08-01T09:42:18;3.75;;;1.67;;
66472;SDS011;53291;51.680;8.344;2022-08-01T09:44:45;1.23;;;0.90;;
66472;SDS011;53291;51.680;8.344;2022-08-01T09:47:11;2.22;;;0.60;;
66472;SDS011;53291;51.680;8.344;2022-08-01T09:49:38;1.50;;;0.73;;
66472;SDS011;53291;51.680;8.344;2022-08-01T09:52:17;3.75;;;2.70;;
66472;SDS011;53291;51.680;8.344;2022-08-01T09:54:52;3.25;;;1.95;;
66472;SDS011;53291;51.680;8.344;2022-08-01T09:57:20;1.38;;;0.88;;
66472;SDS011;53291;51.680;8.344;2022-08-01T09:59:46;0.70;;;0.22;;
66472;SDS011;53291;51.680;8.344;2022-08-01T10:02:26;1.48;;;0.50;;
66472;SDS011;53291;51.680;8.344;2022-08-01T10:04:52;0.47;;;0.32;;
66472;SDS011;53291;51.680;8.344;2022-08-01T10:07:18;0.82;;;0.50;;
66472;SDS011;53291;51.680;8.344;2022-08-01T10:09:44;0.63;;;0.32;;
66472;SDS011;53291;51.680;8.344;2022-08-01T10:12:12;1.17;;;1.00;;
66472;SDS011;53291;51.680;8.344;2022-08-01T10:14:40;2.92;;;1.73;;
66472;SDS011;53291;51.680;8.344;2022-08-01T10:17:06;0.90;;;0.38;;
66472;SDS011;53291;51.680;8.344;2022-08-01T10:19:34;1.65;;;1.20;;
66472;SDS011;53291;51.680;8.344;2022-08-01T10:22:00;3.22;;;2.10;;
66472;SDS011;53291;51.680;8.344;2022-08-01T10:24:27;2.70;;;1.05;;
66472;SDS011;53291;51.680;8.344;2022-08-01T10:26:58;1.58;;;0.55;;
66472;SDS011;53291;51.680;8.344;2022-08-01T10:29:31;2.05;;;0.93;;
66472;SDS011;53291;51.680;8.344;2022-08-01T10:32:02;4.70;;;2.47;;
66472;SDS011;53291;51.680;8.344;2022-08-01T10:34:29;6.72;;;3.17;;
66472;SDS011;53291;51.680;8.344;2022-08-01T10:36:56;6.75;;;3.15;;
66472;SDS011;53291;51.680;8.344;2022-08-01T10:39:22;5.03;;;2.38;;
66472;SDS011;53291;51.680;8.344;2022-08-01T10:41:48;5.53;;;2.83;;
66472;SDS011;53291;51.680;8.344;2022-08-01T10:44:14;6.15;;;2.85;;
66472;SDS011;53291;51.680;8.344;2022-08-01T10:46:42;5.10;;;2.60;;
66472;SDS011;53291;51.680;8.344;2022-08-01T10:49:15;3.70;;;1.83;;
66472;SDS011;53291;51.680;8.344;2022-08-01T10:51:42;4.35;;;2.63;;
66472;SDS011;53291;51.680;8.344;2022-08-01T10:54:09;4.43;;;1.60;;
66472;SDS011;53291;51.680;8.344;2022-08-01T10:56:43;3.33;;;2.10;;
66472;SDS011;53291;51.680;8.344;2022-08-01T10:59:25;2.90;;;1.65;;
66472;SDS011;53291;51.680;8.344;2022-08-01T11:04:52;2.10;;;1.30;;
66472;SDS011;53291;51.680;8.344;2022-08-01T11:07:21;2.03;;;1.50;;
66472;SDS011;53291;51.680;8.344;2022-08-01T11:10:04;2.13;;;0.98;;
66472;SDS011;53291;51.680;8.344;2022-08-01T11:12:50;2.00;;;1.55;;
66472;SDS011;53291;51.680;8.344;2022-08-01T11:15:17;2.30;;;0.77;;
66472;SDS011;53291;51.680;8.344;2022-08-01T11:17:49;1.98;;;1.20;;
66472;SDS011;53291;51.680;8.344;2022-08-01T11:20:17;3.13;;;1.15;;
66472;SDS011;53291;51.680;8.344;2022-08-01T11:41:22;1.98;;;0.95;;
66472;SDS011;53291;51.680;8.344;2022-08-01T11:49:34;2.42;;;1.42;;
66472;SDS011;53291;51.680;8.344;2022-08-01T11:52:06;2.67;;;1.50;;
66472;SDS011;53291;51.680;8.344;2022-08-01T11:54:51;13.43;;;6.32;;
66472;SDS011;53291;51.680;8.344;2022-08-01T11:57:20;5.00;;;2.67;;
66472;SDS011;53291;51.680;8.344;2022-08-01T11:59:47;3.90;;;2.10;;
66472;SDS011;53291;51.680;8.344;2022-08-01T12:02:27;1.77;;;0.93;;
66472;SDS011;53291;51.680;8.344;2022-08-01T12:04:58;1.63;;;1.20;;
66472;SDS011;53291;51.680;8.344;2022-08-01T12:07:26;1.20;;;0.77;;
66472;SDS011;53291;51.680;8.344;2022-08-01T12:10:01;1.70;;;0.90;;
66472;SDS011;53291;51.680;8.344;2022-08-01T12:12:29;1.75;;;0.65;;
66472;SDS011;53291;51.680;8.344;2022-08-01T12:14:56;1.92;;;0.65;;
66472;SDS011;53291;51.680;8.344;2022-08-01T12:20:00;1.63;;;1.00;;
66472;SDS011;53291;51.680;8.344;2022-08-01T12:22:26;1.55;;;0.60;;
66472;SDS011;53291;51.680;8.344;2022-08-01T12:24:52;1.67;;;0.82;;
66472;SDS011;53291;51.680;8.344;2022-08-01T12:27:24;1.20;;;0.70;;
66472;SDS011;53291;51.680;8.344;2022-08-01T12:29:51;2.03;;;0.88;;
66472;SDS011;53291;51.680;8.344;2022-08-01T12:32:23;2.15;;;1.58;;
66472;SDS011;53291;51.680;8.344;2022-08-01T12:34:49;1.90;;;0.93;;
66472;SDS011;53291;51.680;8.344;2022-08-01T12:37:15;2.67;;;1.20;;
66472;SDS011;53291;51.680;8.344;2022-08-01T12:39:42;1.70;;;1.05;;
66472;SDS011;53291;51.680;8.344;2022-08-01T12:42:08;2.67;;;1.10;;
66472;SDS011;53291;51.680;8.344;2022-08-01T12:44:36;2.22;;;1.00;;
66472;SDS011;53291;51.680;8.344;2022-08-01T12:47:02;1.52;;;0.70;;
66472;SDS011;53291;51.680;8.344;2022-08-01T12:49:30;2.15;;;1.15;;
66472;SDS011;53291;51.680;8.344;2022-08-01T12:51:57;1.67;;;0.75;;
66472;SDS011;53291;51.680;8.344;2022-08-01T12:54:23;1.67;;;0.52;;
66472;SDS011;53291;51.680;8.344;2022-08-01T12:56:50;2.15;;;0.80;;
66472;SDS011;53291;51.680;8.344;2022-08-01T13:01:54;6.63;;;3.55;;
66472;SDS011;53291;51.680;8.344;2022-08-01T13:04:20;1.95;;;0.90;;
66472;SDS011;53291;51.680;8.344;2022-08-01T13:06:47;7.07;;;3.78;;
66472;SDS011;53291;51.680;8.344;2022-08-01T13:09:21;4.43;;;2.42;;
66472;SDS011;53291;51.680;8.344;2022-08-01T13:11:47;2.42;;;0.98;;
66472;SDS011;53291;51.680;8.344;2022-08-01T13:14:27;2.72;;;1.83;;
66472;SDS011;53291;51.680;8.344;2022-08-01T13:16:53;2.60;;;1.23;;
66472;SDS011;53291;51.680;8.344;2022-08-01T13:19:18;3.65;;;1.67;;
66472;SDS011;53291;51.680;8.344;2022-08-01T13:21:54;1.95;;;0.82;;
66472;SDS011;53291;51.680;8.344;2022-08-01T13:24:27;2.90;;;1.13;;
66472;SDS011;53291;51.680;8.344;2022-08-01T13:29:33;2.13;;;1.50;;
66472;SDS011;53291;51.680;8.344;2022-08-01T13:32:21;2.28;;;1.20;;
66472;SDS011;53291;51.680;8.344;2022-08-01T13:34:46;1.70;;;0.82;;
66472;SDS011;53291;51.680;8.344;2022-08-01T13:37:11;2.10;;;1.45;;
66472;SDS011;53291;51.680;8.344;2022-08-01T13:39:37;2.20;;;0.80;;
66472;SDS011;53291;51.680;8.344;2022-08-01T13:42:05;1.65;;;1.20;;
66472;SDS011;53291;51.680;8.344;2022-08-01T13:44:34;2.72;;;1.20;;
66472;SDS011;53291;51.680;8.344;2022-08-01T13:46:59;6.03;;;2.75;;
66472;SDS011;53291;51.680;8.344;2022-08-01T13:49:25;4.68;;;3.03;;
66472;SDS011;53291;51.680;8.344;2022-08-01T13:51:50;4.57;;;1.83;;
66472;SDS011;53291;51.680;8.344;2022-08-01T13:54:16;4.03;;;1.48;;
66472;SDS011;53291;51.680;8.344;2022-08-01T13:56:42;10.00;;;3.88;;
66472;SDS011;53291;51.680;8.344;2022-08-01T13:59:07;20.42;;;10.80;;
66472;SDS011;53291;51.680;8.344;2022-08-01T14:01:33;2.53;;;1.10;;
66472;SDS011;53291;51.680;8.344;2022-08-01T14:03:59;1.92;;;0.98;;
66472;SDS011;53291;51.680;8.344;2022-08-01T14:06:25;2.55;;;1.13;;
66472;SDS011;53291;51.680;8.344;2022-08-01T14:08:50;1.30;;;0.70;;
66472;SDS011;53291;51.680;8.344;2022-08-01T14:11:16;1.52;;;0.63;;
66472;SDS011;53291;51.680;8.344;2022-08-01T14:13:42;1.60;;;0.85;;
66472;SDS011;53291;51.680;8.344;2022-08-01T14:16:07;2.40;;;0.60;;
66472;SDS011;53291;51.680;8.344;2022-08-01T14:18:33;1.80;;;0.85;;
66472;SDS011;53291;51.680;8.344;2022-08-01T14:20:58;2.75;;;0.82;;
66472;SDS011;53291;51.680;8.344;2022-08-01T14:23:24;1.80;;;0.82;;
66472;SDS011;53291;51.680;8.344;2022-08-01T14:25:50;2.42;;;1.08;;
66472;SDS011;53291;51.680;8.344;2022-08-01T14:28:15;1.17;;;0.60;;
66472;SDS011;53291;51.680;8.344;2022-08-01T14:30:41;2.13;;;0.68;;
66472;SDS011;53291;51.680;8.344;2022-08-01T14:33:07;2.58;;;0.73;;
66472;SDS011;53291;51.680;8.344;2022-08-01T14:35:33;1.65;;;1.25;;
66472;SDS011;53291;51.680;8.344;2022-08-01T14:37:58;1.20;;;0.43;;
66472;SDS011;53291;51.680;8.344;2022-08-01T14:40:24;3.10;;;0.90;;
66472;SDS011;53291;51.680;8.344;2022-08-01T14:42:49;0.90;;;0.43;;
66472;SDS011;53291;51.680;8.344;2022-08-01T14:45:15;1.00;;;0.40;;
66472;SDS011;53291;51.680;8.344;2022-08-01T14:47:41;1.38;;;0.73;;
66472;SDS011;53291;51.680;8.344;2022-08-01T14:50:11;2.03;;;0.75;;
66472;SDS011;53291;51.680;8.344;2022-08-01T14:52:39;2.10;;;1.00;;
66472;SDS011;53291;51.680;8.344;2022-08-01T14:55:06;1.60;;;0.63;;
66472;SDS011;53291;51.680;8.344;2022-08-01T14:57:33;3.05;;;0.93;;
66472;SDS011;53291;51.680;8.344;2022-08-01T14:59:59;1.50;;;0.73;;
66472;SDS011;53291;51.680;8.344;2022-08-01T15:02:25;2.95;;;1.02;;
66472;SDS011;53291;51.680;8.344;2022-08-01T15:04:50;1.80;;;0.52;;
66472;SDS011;53291;51.680;8.344;2022-08-01T15:07:16;2.05;;;0.75;;
66472;SDS011;53291;51.680;8.344;2022-08-01T15:09:42;1.52;;;0.70;;
66472;SDS011;53291;51.680;8.344;2022-08-01T15:12:08;2.45;;;1.33;;
66472;SDS011;53291;51.680;8.344;2022-08-01T15:14:34;1.52;;;0.93;;
66472;SDS011;53291;51.680;8.344;2022-08-01T15:17:19;2.38;;;0.80;;
66472;SDS011;53291;51.680;8.344;2022-08-01T15:19:56;1.20;;;0.70;;
66472;SDS011;53291;51.680;8.344;2022-08-01T15:22:23;1.85;;;1.27;;
66472;SDS011;53291;51.680;8.344;2022-08-01T15:24:50;1.77;;;1.38;;
66472;SDS011;53291;51.680;8.344;2022-08-01T15:27:16;1.75;;;1.38;;
66472;SDS011;53291;51.680;8.344;2022-08-01T15:29:42;1.58;;;1.13;;
66472;SDS011;53291;51.680;8.344;2022-08-01T15:32:08;1.90;;;0.88;;
66472;SDS011;53291;51.680;8.344;2022-08-01T15:34:34;2.75;;;1.20;;
66472;SDS011;53291;51.680;8.344;2022-08-01T15:37:01;2.03;;;1.30;;
66472;SDS011;53291;51.680;8.344;2022-08-01T15:39:26;1.60;;;1.20;;
66472;SDS011;53291;51.680;8.344;2022-08-01T15:41:52;1.20;;;0.82;;